PWSweather.com
Personal Weather Stations
Station Observations
NYERIN
South Erin, Erin, NY 14838-9545

South ErinErin, NY 14838-9545

Lat: 42.150605, Lon: -76.654038

Elevation: 1663

Station Type: Davis VP Pro II

http://southerin-ny.org/wx.php

Latest ConditionsUpdated 7:22:01 PM EST Thursday, Dec 18, 2014
Currently Today's Max Today's Min Today's Average
Temperature 28.5°F-1.9°C 29.8°F-1.2°C 26.7°F-2.9°C 28.2°F-2.1°C
Dew Point 26.5°F-3.1°C 27.8°F-2.3°C 23.0°F-5.0°C 25.6°F-3.6°C
Winds 1.6 mph NW2.6 kmh NW 11.5 mph W18.5 kmh W - 5.7 mph 9.2 kmh
Wind Gusts 6.0 mph9.7 kmh 19.0 mph30.6 kmh - -
Humidity 92% 98% 83% 90%
Pressure 30.06 in1017.9 mb 30.07 in1018.3 mb 29.95 in1014.2 mb -
Hour Temp Dew Point Humidity Winds Wind Gusts Pressure Precip Precip Rate Daily Precip Total
07:22 PM 28.5°F-1.9°C 26.5°F-3.1°C 92% 1.6 mph NW2.6 kmh NW 6.0 mph9.7 kmh 30.06 in1017.9 mb 0.00 in0.0 mm 0.00 in/hr0.0 mm/hr 0.00 in0.0 mm
07:12 PM 28.5°F-1.9°C 26.5°F-3.1°C 92% 4.5 mph NNW7.2 kmh NNW 8.0 mph12.9 kmh 30.06 in1017.9 mb 0.00 in0.0 mm 0.00 in/hr0.0 mm/hr 0.00 in0.0 mm
07:02 PM 28.7°F-1.8°C 26.4°F-3.1°C 91% 3.8 mph NNW6.1 kmh NNW 6.0 mph9.7 kmh 30.06 in1017.9 mb 0.00 in0.0 mm 0.00 in/hr0.0 mm/hr 0.00 in0.0 mm
06:52 PM 28.8°F-1.8°C 26.5°F-3.1°C 91% 6.6 mph NW10.6 kmh NW 9.0 mph14.5 kmh 30.06 in1017.9 mb 0.00 in0.0 mm 0.00 in/hr0.0 mm/hr 0.00 in0.0 mm
06:42 PM 28.8°F-1.8°C 26.5°F-3.1°C 91% 4.2 mph NNW6.8 kmh NNW 11.0 mph17.7 kmh 30.06 in1017.9 mb 0.00 in0.0 mm 0.00 in/hr0.0 mm/hr 0.00 in0.0 mm
06:32 PM 29.0°F-1.7°C 26.4°F-3.1°C 90% 4.2 mph NW6.8 kmh NW 9.0 mph14.5 kmh 30.06 in1017.9 mb 0.00 in0.0 mm 0.00 in/hr0.0 mm/hr 0.00 in0.0 mm
06:22 PM 29.0°F-1.7°C 26.4°F-3.1°C 90% 3.0 mph NW4.8 kmh NW 4.0 mph6.4 kmh 30.06 in1017.9 mb 0.00 in0.0 mm 0.00 in/hr0.0 mm/hr 0.00 in0.0 mm
06:12 PM 29.1°F-1.6°C 26.5°F-3.1°C 90% 3.6 mph WNW5.8 kmh WNW 5.0 mph8.0 kmh 30.06 in1017.9 mb 0.00 in0.0 mm 0.00 in/hr0.0 mm/hr 0.00 in0.0 mm
06:02 PM 29.1°F-1.6°C 26.3°F-3.2°C 89% 4.4 mph NW7.1 kmh NW 8.0 mph12.9 kmh 30.06 in1017.9 mb 0.00 in0.0 mm 0.00 in/hr0.0 mm/hr 0.00 in0.0 mm
05:52 PM 29.0°F-1.7°C 26.4°F-3.1°C 90% 4.1 mph NW6.6 kmh NW 5.0 mph8.0 kmh 30.06 in1017.9 mb 0.00 in0.0 mm 0.00 in/hr0.0 mm/hr 0.00 in0.0 mm
05:42 PM 29.0°F-1.7°C 26.4°F-3.1°C 90% 5.3 mph WNW8.5 kmh WNW 8.0 mph12.9 kmh 30.05 in1017.6 mb 0.00 in0.0 mm 0.00 in/hr0.0 mm/hr 0.00 in0.0 mm
05:32 PM 29.0°F-1.7°C 26.7°F-2.9°C 91% 5.2 mph W8.4 kmh W 10.0 mph16.1 kmh 30.05 in1017.6 mb 0.00 in0.0 mm 0.00 in/hr0.0 mm/hr 0.00 in0.0 mm
05:22 PM 29.0°F-1.7°C 27.0°F-2.8°C 92% 4.2 mph WNW6.8 kmh WNW 6.0 mph9.7 kmh 30.05 in1017.6 mb 0.00 in0.0 mm 0.00 in/hr0.0 mm/hr 0.00 in0.0 mm
05:12 PM 29.0°F-1.7°C 27.0°F-2.8°C 92% 6.6 mph WNW10.6 kmh WNW 13.0 mph20.9 kmh 30.05 in1017.6 mb 0.00 in0.0 mm 0.00 in/hr0.0 mm/hr 0.00 in0.0 mm
05:02 PM 29.0°F-1.7°C 27.2°F-2.7°C 93% 5.4 mph WNW8.7 kmh WNW 10.0 mph16.1 kmh 30.05 in1017.6 mb 0.00 in0.0 mm 0.00 in/hr0.0 mm/hr 0.00 in0.0 mm
04:52 PM 29.0°F-1.7°C 27.2°F-2.7°C 93% 4.6 mph NW7.4 kmh NW 8.0 mph12.9 kmh 30.05 in1017.6 mb 0.00 in0.0 mm 0.00 in/hr0.0 mm/hr 0.00 in0.0 mm
04:42 PM 29.0°F-1.7°C 27.5°F-2.5°C 94% 5.1 mph NW8.2 kmh NW 9.0 mph14.5 kmh 30.05 in1017.6 mb 0.00 in0.0 mm 0.00 in/hr0.0 mm/hr 0.00 in0.0 mm
04:32 PM 29.0°F-1.7°C 27.5°F-2.5°C 94% 4.0 mph WNW6.4 kmh WNW 6.0 mph9.7 kmh 30.05 in1017.6 mb 0.00 in0.0 mm 0.00 in/hr0.0 mm/hr 0.00 in0.0 mm
04:22 PM 29.0°F-1.7°C 27.5°F-2.5°C 94% 5.6 mph W9.0 kmh W 9.0 mph14.5 kmh 30.05 in1017.6 mb 0.00 in0.0 mm 0.00 in/hr0.0 mm/hr 0.00 in0.0 mm
04:12 PM 29.0°F-1.7°C 27.5°F-2.5°C 94% 3.2 mph WNW5.1 kmh WNW 8.0 mph12.9 kmh 30.05 in1017.6 mb 0.00 in0.0 mm 0.00 in/hr0.0 mm/hr 0.00 in0.0 mm
04:02 PM 29.0°F-1.7°C 27.5°F-2.5°C 94% 4.4 mph WNW7.1 kmh WNW 8.0 mph12.9 kmh 30.05 in1017.6 mb 0.00 in0.0 mm 0.00 in/hr0.0 mm/hr 0.00 in0.0 mm
03:52 PM 29.0°F-1.7°C 27.5°F-2.5°C 94% 5.2 mph NW8.4 kmh NW 9.0 mph14.5 kmh 30.04 in1017.3 mb 0.00 in0.0 mm 0.00 in/hr0.0 mm/hr 0.00 in0.0 mm
03:42 PM 29.0°F-1.7°C 27.5°F-2.5°C 94% 6.1 mph NW9.8 kmh NW 7.0 mph11.3 kmh 30.04 in1017.3 mb 0.00 in0.0 mm 0.00 in/hr0.0 mm/hr 0.00 in0.0 mm
03:32 PM 29.1°F-1.6°C 27.6°F-2.4°C 94% 7.9 mph W12.7 kmh W 11.0 mph17.7 kmh 30.04 in1017.3 mb 0.00 in0.0 mm 0.00 in/hr0.0 mm/hr 0.00 in0.0 mm
03:22 PM 29.3°F-1.5°C 27.8°F-2.3°C 94% 3.7 mph WNW6.0 kmh WNW 5.0 mph8.0 kmh 30.04 in1017.3 mb 0.00 in0.0 mm 0.00 in/hr0.0 mm/hr 0.00 in0.0 mm
03:12 PM 29.3°F-1.5°C 27.5°F-2.5°C 93% 3.6 mph NW5.8 kmh NW 4.0 mph6.4 kmh 30.04 in1017.3 mb 0.00 in0.0 mm 0.00 in/hr0.0 mm/hr 0.00 in0.0 mm
03:02 PM 29.3°F-1.5°C 27.5°F-2.5°C 93% 4.1 mph WNW6.6 kmh WNW 7.0 mph11.3 kmh 30.03 in1016.9 mb 0.00 in0.0 mm 0.00 in/hr0.0 mm/hr 0.00 in0.0 mm
02:52 PM 29.4°F-1.4°C 27.6°F-2.4°C 93% 6.9 mph NW11.1 kmh NW 9.0 mph14.5 kmh 30.03 in1016.9 mb 0.00 in0.0 mm 0.00 in/hr0.0 mm/hr 0.00 in0.0 mm
02:42 PM 29.4°F-1.4°C 27.4°F-2.6°C 92% 5.0 mph NW8.0 kmh NW 6.0 mph9.7 kmh 30.03 in1016.9 mb 0.00 in0.0 mm 0.00 in/hr0.0 mm/hr 0.00 in0.0 mm
02:32 PM 29.7°F-1.3°C 27.7°F-2.4°C 92% 7.8 mph WSW12.6 kmh WSW 13.0 mph20.9 kmh 30.02 in1016.6 mb 0.00 in0.0 mm 0.00 in/hr0.0 mm/hr 0.00 in0.0 mm
02:22 PM 29.8°F-1.2°C 27.5°F-2.5°C 91% 3.4 mph WNW5.5 kmh WNW 9.0 mph14.5 kmh 30.02 in1016.6 mb 0.00 in0.0 mm 0.00 in/hr0.0 mm/hr 0.00 in0.0 mm
02:12 PM 29.7°F-1.3°C 27.1°F-2.7°C 90% 5.2 mph W8.4 kmh W 8.0 mph12.9 kmh 30.02 in1016.6 mb 0.00 in0.0 mm 0.00 in/hr0.0 mm/hr 0.00 in0.0 mm
02:02 PM 29.7°F-1.3°C 26.9°F-2.8°C 89% 6.7 mph WNW10.8 kmh WNW 12.0 mph19.3 kmh 30.02 in1016.6 mb 0.00 in0.0 mm 0.00 in/hr0.0 mm/hr 0.00 in0.0 mm
01:52 PM 29.7°F-1.3°C 26.9°F-2.8°C 89% 4.3 mph W6.9 kmh W 8.0 mph12.9 kmh 30.02 in1016.6 mb 0.00 in0.0 mm 0.00 in/hr0.0 mm/hr 0.00 in0.0 mm
01:42 PM 29.7°F-1.3°C 26.9°F-2.8°C 89% 3.1 mph NW5.0 kmh NW 6.0 mph9.7 kmh 30.02 in1016.6 mb 0.00 in0.0 mm 0.00 in/hr0.0 mm/hr 0.00 in0.0 mm
01:32 PM 29.7°F-1.3°C 26.9°F-2.8°C 89% 5.2 mph NW8.4 kmh NW 10.0 mph16.1 kmh 30.02 in1016.6 mb 0.00 in0.0 mm 0.00 in/hr0.0 mm/hr 0.00 in0.0 mm
01:22 PM 29.7°F-1.3°C 26.9°F-2.8°C 89% 0.6 mph W1.0 kmh W 6.0 mph9.7 kmh 30.02 in1016.6 mb 0.00 in0.0 mm 0.00 in/hr0.0 mm/hr 0.00 in0.0 mm
01:12 PM 29.7°F-1.3°C 26.9°F-2.8°C 89% 5.2 mph WSW8.4 kmh WSW 10.0 mph16.1 kmh 30.02 in1016.6 mb 0.00 in0.0 mm 0.00 in/hr0.0 mm/hr 0.00 in0.0 mm
01:02 PM 29.5°F-1.4°C 26.7°F-2.9°C 89% 3.8 mph NNW6.1 kmh NNW 9.0 mph14.5 kmh 30.02 in1016.6 mb 0.00 in0.0 mm 0.00 in/hr0.0 mm/hr 0.00 in0.0 mm
12:52 PM 29.5°F-1.4°C 26.7°F-2.9°C 89% 7.1 mph NW11.4 kmh NW 13.0 mph20.9 kmh 30.01 in1016.3 mb 0.00 in0.0 mm 0.00 in/hr0.0 mm/hr 0.00 in0.0 mm
12:42 PM 29.4°F-1.4°C 26.8°F-2.9°C 90% 5.9 mph NW9.5 kmh NW 13.0 mph20.9 kmh 30.02 in1016.6 mb 0.00 in0.0 mm 0.00 in/hr0.0 mm/hr 0.00 in0.0 mm
12:32 PM 29.3°F-1.5°C 26.5°F-3.1°C 89% 6.1 mph W9.8 kmh W 13.0 mph20.9 kmh 30.02 in1016.6 mb 0.00 in0.0 mm 0.00 in/hr0.0 mm/hr 0.00 in0.0 mm
12:22 PM 29.3°F-1.5°C 26.5°F-3.1°C 89% 4.8 mph NW7.7 kmh NW 9.0 mph14.5 kmh 30.02 in1016.6 mb 0.00 in0.0 mm 0.00 in/hr0.0 mm/hr 0.00 in0.0 mm
12:12 PM 29.3°F-1.5°C 26.7°F-2.9°C 90% 7.0 mph NW11.3 kmh NW 16.0 mph25.7 kmh 30.02 in1016.6 mb 0.00 in0.0 mm 0.00 in/hr0.0 mm/hr 0.00 in0.0 mm
12:02 PM 29.1°F-1.6°C 26.5°F-3.1°C 90% 2.7 mph NNW4.3 kmh NNW 3.0 mph4.8 kmh 30.03 in1016.9 mb 0.00 in0.0 mm 0.00 in/hr0.0 mm/hr 0.00 in0.0 mm
11:52 AM 29.0°F-1.7°C 26.4°F-3.1°C 90% 2.9 mph NNW4.7 kmh NNW 8.0 mph12.9 kmh 30.03 in1016.9 mb 0.00 in0.0 mm 0.00 in/hr0.0 mm/hr 0.00 in0.0 mm
11:42 AM 28.8°F-1.8°C 26.2°F-3.2°C 90% 1.7 mph W2.7 kmh W 5.0 mph8.0 kmh 30.04 in1017.3 mb 0.00 in0.0 mm 0.00 in/hr0.0 mm/hr 0.00 in0.0 mm
11:32 AM 28.7°F-1.8°C 26.4°F-3.1°C 91% 5.9 mph W9.5 kmh W 8.0 mph12.9 kmh 30.04 in1017.3 mb 0.00 in0.0 mm 0.00 in/hr0.0 mm/hr 0.00 in0.0 mm
11:22 AM 28.5°F-1.9°C 26.2°F-3.2°C 91% 4.7 mph NW7.6 kmh NW 6.0 mph9.7 kmh 30.05 in1017.6 mb 0.00 in0.0 mm 0.00 in/hr0.0 mm/hr 0.00 in0.0 mm
11:12 AM 28.4°F-2.0°C 26.2°F-3.2°C 91% 3.4 mph W5.5 kmh W 7.0 mph11.3 kmh 30.05 in1017.6 mb 0.00 in0.0 mm 0.00 in/hr0.0 mm/hr 0.00 in0.0 mm
11:02 AM 28.4°F-2.0°C 26.1°F-3.3°C 91% 4.9 mph W7.9 kmh W 7.0 mph11.3 kmh 30.05 in1017.6 mb 0.00 in0.0 mm 0.00 in/hr0.0 mm/hr 0.00 in0.0 mm
10:52 AM 28.2°F-2.1°C 26.2°F-3.2°C 92% 2.3 mph NW3.7 kmh NW 6.0 mph9.7 kmh 30.05 in1017.6 mb 0.00 in0.0 mm 0.00 in/hr0.0 mm/hr 0.00 in0.0 mm
10:42 AM 28.1°F-2.2°C 26.1°F-3.3°C 92% 7.1 mph NW11.4 kmh NW 9.0 mph14.5 kmh 30.06 in1017.9 mb 0.00 in0.0 mm 0.00 in/hr0.0 mm/hr 0.00 in0.0 mm
10:32 AM 27.9°F-2.3°C 25.9°F-3.4°C 92% 4.5 mph SW7.2 kmh SW 13.0 mph20.9 kmh 30.06 in1017.9 mb 0.00 in0.0 mm 0.00 in/hr0.0 mm/hr 0.00 in0.0 mm
10:22 AM 27.8°F-2.3°C 25.5°F-3.6°C 91% 7.7 mph NW12.4 kmh NW 12.0 mph19.3 kmh 30.06 in1017.9 mb 0.00 in0.0 mm 0.00 in/hr0.0 mm/hr 0.00 in0.0 mm
10:12 AM 27.6°F-2.4°C 25.3°F-3.7°C 91% 4.4 mph NNW7.1 kmh NNW 7.0 mph11.3 kmh 30.07 in1018.3 mb 0.00 in0.0 mm 0.00 in/hr0.0 mm/hr 0.00 in0.0 mm
10:02 AM 27.6°F-2.4°C 25.1°F-3.8°C 90% 5.4 mph NNW8.7 kmh NNW 10.0 mph16.1 kmh 30.07 in1018.3 mb 0.00 in0.0 mm 0.00 in/hr0.0 mm/hr 0.00 in0.0 mm
09:52 AM 27.6°F-2.4°C 25.1°F-3.8°C 90% 5.7 mph NW9.2 kmh NW 7.0 mph11.3 kmh 30.07 in1018.3 mb 0.00 in0.0 mm 0.00 in/hr0.0 mm/hr 0.00 in0.0 mm
09:42 AM 27.5°F-2.5°C 24.7°F-4.1°C 89% 6.1 mph W9.8 kmh W 10.0 mph16.1 kmh 30.07 in1018.3 mb 0.00 in0.0 mm 0.00 in/hr0.0 mm/hr 0.00 in0.0 mm
09:32 AM 27.5°F-2.5°C 24.4°F-4.2°C 88% 6.5 mph NW10.5 kmh NW 9.0 mph14.5 kmh 30.07 in1018.3 mb 0.00 in0.0 mm 0.00 in/hr0.0 mm/hr 0.00 in0.0 mm
09:22 AM 27.5°F-2.5°C 24.4°F-4.2°C 88% 4.0 mph NW6.4 kmh NW 8.0 mph12.9 kmh 30.07 in1018.3 mb 0.00 in0.0 mm 0.00 in/hr0.0 mm/hr 0.00 in0.0 mm
09:12 AM 27.5°F-2.5°C 24.1°F-4.4°C 87% 6.3 mph NW10.1 kmh NW 12.0 mph19.3 kmh 30.07 in1018.3 mb 0.00 in0.0 mm 0.00 in/hr0.0 mm/hr 0.00 in0.0 mm
09:02 AM 27.5°F-2.5°C 23.9°F-4.5°C 86% 7.7 mph NW12.4 kmh NW 15.0 mph24.1 kmh 30.07 in1018.3 mb 0.00 in0.0 mm 0.00 in/hr0.0 mm/hr 0.00 in0.0 mm
08:52 AM 27.3°F-2.6°C 23.4°F-4.8°C 85% 4.0 mph WNW6.4 kmh WNW 7.0 mph11.3 kmh 30.07 in1018.3 mb 0.00 in0.0 mm 0.00 in/hr0.0 mm/hr 0.00 in0.0 mm
08:42 AM 27.3°F-2.6°C 23.7°F-4.6°C 86% 10.3 mph WNW16.6 kmh WNW 19.0 mph30.6 kmh 30.07 in1018.3 mb 0.00 in0.0 mm 0.00 in/hr0.0 mm/hr 0.00 in0.0 mm
08:32 AM 27.3°F-2.6°C 23.4°F-4.8°C 85% 5.9 mph W9.5 kmh W 10.0 mph16.1 kmh 30.06 in1017.9 mb 0.00 in0.0 mm 0.00 in/hr0.0 mm/hr 0.00 in0.0 mm
08:22 AM 27.3°F-2.6°C 23.4°F-4.8°C 85% 8.7 mph NW14.0 kmh NW 13.0 mph20.9 kmh 30.06 in1017.9 mb 0.00 in0.0 mm 0.00 in/hr0.0 mm/hr 0.00 in0.0 mm
08:12 AM 27.2°F-2.7°C 23.0°F-5.0°C 84% 5.1 mph NW8.2 kmh NW 19.0 mph30.6 kmh 30.05 in1017.6 mb 0.00 in0.0 mm 0.00 in/hr0.0 mm/hr 0.00 in0.0 mm
08:02 AM 27.2°F-2.7°C 23.0°F-5.0°C 84% 7.0 mph W11.3 kmh W 8.0 mph12.9 kmh 30.05 in1017.6 mb 0.00 in0.0 mm 0.00 in/hr0.0 mm/hr 0.00 in0.0 mm
07:52 AM 27.2°F-2.7°C 23.0°F-5.0°C 84% 6.0 mph NNW9.7 kmh NNW 10.0 mph16.1 kmh 30.05 in1017.6 mb 0.00 in0.0 mm 0.00 in/hr0.0 mm/hr 0.00 in0.0 mm
07:42 AM 27.2°F-2.7°C 23.0°F-5.0°C 84% 7.4 mph NW11.9 kmh NW 13.0 mph20.9 kmh 30.04 in1017.3 mb 0.00 in0.0 mm 0.00 in/hr0.0 mm/hr 0.00 in0.0 mm
07:32 AM 27.2°F-2.7°C 23.0°F-5.0°C 84% 10.0 mph NW16.1 kmh NW 13.0 mph20.9 kmh 30.04 in1017.3 mb 0.00 in0.0 mm 0.00 in/hr0.0 mm/hr 0.00 in0.0 mm
07:22 AM 27.2°F-2.7°C 23.3°F-4.8°C 85% 8.2 mph NW13.2 kmh NW 15.0 mph24.1 kmh 30.04 in1017.3 mb 0.00 in0.0 mm 0.00 in/hr0.0 mm/hr 0.00 in0.0 mm
07:12 AM 27.0°F-2.8°C 23.1°F-4.9°C 85% 9.2 mph NW14.8 kmh NW 10.0 mph16.1 kmh 30.03 in1016.9 mb 0.00 in0.0 mm 0.00 in/hr0.0 mm/hr 0.00 in0.0 mm
07:02 AM 27.2°F-2.7°C 23.6°F-4.7°C 86% 6.3 mph NW10.1 kmh NW 16.0 mph25.7 kmh 30.03 in1016.9 mb 0.00 in0.0 mm 0.00 in/hr0.0 mm/hr 0.00 in0.0 mm
06:52 AM 27.2°F-2.7°C 23.6°F-4.7°C 86% 6.8 mph WNW10.9 kmh WNW 11.0 mph17.7 kmh 30.03 in1016.9 mb 0.00 in0.0 mm 0.00 in/hr0.0 mm/hr 0.00 in0.0 mm
06:42 AM 27.2°F-2.7°C 23.6°F-4.7°C 86% 4.5 mph W7.2 kmh W 6.0 mph9.7 kmh 30.03 in1016.9 mb 0.00 in0.0 mm 0.00 in/hr0.0 mm/hr 0.00 in0.0 mm
06:32 AM 27.2°F-2.7°C 23.3°F-4.8°C 85% 6.2 mph NW10.0 kmh NW 13.0 mph20.9 kmh 30.03 in1016.9 mb 0.00 in0.0 mm 0.00 in/hr0.0 mm/hr 0.00 in0.0 mm
06:22 AM 27.3°F-2.6°C 23.4°F-4.8°C 85% 7.6 mph WNW12.2 kmh WNW 8.0 mph12.9 kmh 30.03 in1016.9 mb 0.00 in0.0 mm 0.00 in/hr0.0 mm/hr 0.00 in0.0 mm
06:12 AM 27.3°F-2.6°C 23.4°F-4.8°C 85% 7.4 mph WNW11.9 kmh WNW 12.0 mph19.3 kmh 30.03 in1016.9 mb 0.00 in0.0 mm 0.00 in/hr0.0 mm/hr 0.00 in0.0 mm
06:02 AM 27.3°F-2.6°C 23.4°F-4.8°C 85% 6.3 mph NW10.1 kmh NW 11.0 mph17.7 kmh 30.02 in1016.6 mb 0.00 in0.0 mm 0.00 in/hr0.0 mm/hr 0.00 in0.0 mm
05:52 AM 27.3°F-2.6°C 23.4°F-4.8°C 85% 5.1 mph N8.2 kmh N 10.0 mph16.1 kmh 30.02 in1016.6 mb 0.00 in0.0 mm 0.00 in/hr0.0 mm/hr 0.00 in0.0 mm
05:42 AM 27.5°F-2.5°C 23.6°F-4.7°C 85% 11.5 mph W18.5 kmh W 12.0 mph19.3 kmh 30.02 in1016.6 mb 0.00 in0.0 mm 0.00 in/hr0.0 mm/hr 0.00 in0.0 mm
05:32 AM 27.5°F-2.5°C 23.6°F-4.7°C 85% 8.1 mph W13.0 kmh W 14.0 mph22.5 kmh 30.01 in1016.3 mb 0.00 in0.0 mm 0.00 in/hr0.0 mm/hr 0.00 in0.0 mm
05:22 AM 27.5°F-2.5°C 23.3°F-4.8°C 84% 5.6 mph WNW9.0 kmh WNW 9.0 mph14.5 kmh 30.01 in1016.3 mb 0.00 in0.0 mm 0.00 in/hr0.0 mm/hr 0.00 in0.0 mm
05:12 AM 27.5°F-2.5°C 23.3°F-4.8°C 84% 6.3 mph NW10.1 kmh NW 12.0 mph19.3 kmh 30.01 in1016.3 mb 0.00 in0.0 mm 0.00 in/hr0.0 mm/hr 0.00 in0.0 mm
05:02 AM 27.6°F-2.4°C 23.4°F-4.8°C 84% 4.0 mph NW6.4 kmh NW 15.0 mph24.1 kmh 30.00 in1015.9 mb 0.00 in0.0 mm 0.00 in/hr0.0 mm/hr 0.00 in0.0 mm
04:52 AM 27.6°F-2.4°C 23.4°F-4.8°C 84% 8.5 mph NW13.7 kmh NW 13.0 mph20.9 kmh 30.00 in1015.9 mb 0.00 in0.0 mm 0.00 in/hr0.0 mm/hr 0.00 in0.0 mm
04:42 AM 27.6°F-2.4°C 23.1°F-4.9°C 83% 4.7 mph W7.6 kmh W 6.0 mph9.7 kmh 29.99 in1015.6 mb 0.00 in0.0 mm 0.00 in/hr0.0 mm/hr 0.00 in0.0 mm
04:32 AM 27.6°F-2.4°C 23.4°F-4.8°C 84% 5.2 mph NW8.4 kmh NW 12.0 mph19.3 kmh 29.99 in1015.6 mb 0.00 in0.0 mm 0.00 in/hr0.0 mm/hr 0.00 in0.0 mm
04:22 AM 27.6°F-2.4°C 23.4°F-4.8°C 84% 8.3 mph NW13.4 kmh NW 12.0 mph19.3 kmh 30.00 in1015.9 mb 0.00 in0.0 mm 0.00 in/hr0.0 mm/hr 0.00 in0.0 mm
04:12 AM 27.6°F-2.4°C 23.4°F-4.8°C 84% 4.9 mph NW7.9 kmh NW 9.0 mph14.5 kmh 30.00 in1015.9 mb 0.00 in0.0 mm 0.00 in/hr0.0 mm/hr 0.00 in0.0 mm
04:02 AM 27.6°F-2.4°C 23.7°F-4.6°C 85% 7.0 mph NNW11.3 kmh NNW 8.0 mph12.9 kmh 30.00 in1015.9 mb 0.00 in0.0 mm 0.00 in/hr0.0 mm/hr 0.00 in0.0 mm
03:52 AM 27.6°F-2.4°C 24.0°F-4.4°C 86% 10.2 mph N16.4 kmh N 14.0 mph22.5 kmh 29.99 in1015.6 mb 0.00 in0.0 mm 0.00 in/hr0.0 mm/hr 0.00 in0.0 mm
03:42 AM 27.5°F-2.5°C 24.1°F-4.4°C 87% 7.6 mph NW12.2 kmh NW 13.0 mph20.9 kmh 29.99 in1015.6 mb 0.00 in0.0 mm 0.00 in/hr0.0 mm/hr 0.00 in0.0 mm
03:32 AM 27.5°F-2.5°C 24.1°F-4.4°C 87% 6.8 mph WNW10.9 kmh WNW 13.0 mph20.9 kmh 29.99 in1015.6 mb 0.00 in0.0 mm 0.00 in/hr0.0 mm/hr 0.00 in0.0 mm
03:22 AM 27.5°F-2.5°C 24.4°F-4.2°C 88% 5.6 mph WNW9.0 kmh WNW 8.0 mph12.9 kmh 29.99 in1015.6 mb 0.00 in0.0 mm 0.00 in/hr0.0 mm/hr 0.00 in0.0 mm
03:12 AM 27.3°F-2.6°C 24.5°F-4.2°C 89% 6.9 mph NNW11.1 kmh NNW 16.0 mph25.7 kmh 29.99 in1015.6 mb 0.00 in0.0 mm 0.00 in/hr0.0 mm/hr 0.00 in0.0 mm
03:02 AM 27.2°F-2.7°C 24.7°F-4.1°C 90% 4.7 mph WNW7.6 kmh WNW 10.0 mph16.1 kmh 29.99 in1015.6 mb 0.00 in0.0 mm 0.00 in/hr0.0 mm/hr 0.00 in0.0 mm
02:52 AM 27.0°F-2.8°C 24.7°F-4.1°C 91% 7.0 mph W11.3 kmh W 16.0 mph25.7 kmh 29.98 in1015.2 mb 0.00 in0.0 mm 0.00 in/hr0.0 mm/hr 0.00 in0.0 mm
02:42 AM 27.0°F-2.8°C 25.2°F-3.8°C 93% 10.7 mph WSW17.2 kmh WSW 17.0 mph27.4 kmh 29.98 in1015.2 mb 0.00 in0.0 mm 0.00 in/hr0.0 mm/hr 0.00 in0.0 mm
02:32 AM 26.9°F-2.8°C 25.7°F-3.5°C 95% 9.7 mph WSW15.6 kmh WSW 14.0 mph22.5 kmh 29.98 in1015.2 mb 0.00 in0.0 mm 0.00 in/hr0.0 mm/hr 0.00 in0.0 mm
02:22 AM 26.7°F-2.9°C 25.7°F-3.5°C 96% 8.2 mph WSW13.2 kmh WSW 14.0 mph22.5 kmh 29.98 in1015.2 mb 0.00 in0.0 mm 0.00 in/hr0.0 mm/hr 0.00 in0.0 mm
02:12 AM 26.7°F-2.9°C 26.0°F-3.3°C 97% 3.8 mph NW6.1 kmh NW 6.0 mph9.7 kmh 29.97 in1014.9 mb 0.00 in0.0 mm 0.00 in/hr0.0 mm/hr 0.00 in0.0 mm
02:02 AM 26.9°F-2.8°C 26.4°F-3.1°C 98% 7.9 mph NW12.7 kmh NW 10.0 mph16.1 kmh 29.98 in1015.2 mb 0.00 in0.0 mm 0.00 in/hr0.0 mm/hr 0.00 in0.0 mm
01:52 AM 27.0°F-2.8°C 26.5°F-3.1°C 98% 4.1 mph NW6.6 kmh NW 8.0 mph12.9 kmh 29.97 in1014.9 mb 0.00 in0.0 mm 0.00 in/hr0.0 mm/hr 0.00 in0.0 mm
01:42 AM 27.2°F-2.7°C 26.7°F-2.9°C 98% 9.1 mph NW14.6 kmh NW 11.0 mph17.7 kmh 29.96 in1014.6 mb 0.00 in0.0 mm 0.00 in/hr0.0 mm/hr 0.00 in0.0 mm
01:32 AM 27.5°F-2.5°C 27.0°F-2.8°C 98% 5.8 mph WSW9.3 kmh WSW 6.0 mph9.7 kmh 29.96 in1014.6 mb 0.00 in0.0 mm 0.00 in/hr0.0 mm/hr 0.00 in0.0 mm
01:22 AM 27.6°F-2.4°C 27.1°F-2.7°C 98% 4.9 mph W7.9 kmh W 8.0 mph12.9 kmh 29.95 in1014.2 mb 0.00 in0.0 mm 0.00 in/hr0.0 mm/hr 0.00 in0.0 mm
01:12 AM 27.8°F-2.3°C 27.3°F-2.6°C 98% 5.5 mph NW8.9 kmh NW 9.0 mph14.5 kmh 29.95 in1014.2 mb 0.00 in0.0 mm 0.00 in/hr0.0 mm/hr 0.00 in0.0 mm
01:02 AM 27.8°F-2.3°C 27.3°F-2.6°C 98% 5.5 mph W8.9 kmh W 7.0 mph11.3 kmh 29.95 in1014.2 mb 0.00 in0.0 mm 0.00 in/hr0.0 mm/hr 0.00 in0.0 mm
12:52 AM 27.8°F-2.3°C 27.3°F-2.6°C 98% 4.9 mph WNW7.9 kmh WNW 9.0 mph14.5 kmh 29.95 in1014.2 mb 0.00 in0.0 mm 0.00 in/hr0.0 mm/hr 0.00 in0.0 mm
12:42 AM 27.9°F-2.3°C 27.2°F-2.7°C 97% 6.9 mph W11.1 kmh W 7.0 mph11.3 kmh 29.95 in1014.2 mb 0.00 in0.0 mm 0.00 in/hr0.0 mm/hr 0.00 in0.0 mm
12:32 AM 27.9°F-2.3°C 27.2°F-2.7°C 97% 2.6 mph WNW4.2 kmh WNW 4.0 mph6.4 kmh 29.95 in1014.2 mb 0.00 in0.0 mm 0.00 in/hr0.0 mm/hr 0.00 in0.0 mm
12:22 AM 28.1°F-2.2°C 27.1°F-2.7°C 96% 4.6 mph WNW7.4 kmh WNW 12.0 mph19.3 kmh 29.95 in1014.2 mb 0.00 in0.0 mm 0.00 in/hr0.0 mm/hr 0.00 in0.0 mm
12:12 AM 28.2°F-2.1°C 27.0°F-2.8°C 95% 5.1 mph W8.2 kmh W 7.0 mph11.3 kmh 29.95 in1014.2 mb 0.00 in0.0 mm 0.00 in/hr0.0 mm/hr 0.00 in0.0 mm
12:02 AM 28.4°F-2.0°C 26.9°F-2.8°C 94% 4.7 mph WSW7.6 kmh WSW 10.0 mph16.1 kmh 29.95 in1014.2 mb 0.00 in0.0 mm 0.00 in/hr0.0 mm/hr 0.00 in0.0 mm